Time;durP1;ratioP1;P1;durP2;ratioP2;P2;SDS_P1;SDS_P2;PMS_P1;PMS_P2;Temp;Humidity;BMP_temperature;BMP_pressure;BME280_temperature;BME280_humidity;BME280_pressure;Samples;Min_cycle;Max_cycle;Signal;HPM_P1;HPM_P2
2021/09/05 00:01:21;;;;;;;11.55;9.43;;;;;;;17.19;59.97;94491.19;827276;71;33182;-76
2021/09/05 00:16:13;;;;;;;12.47;9.03;;;;;;;17.04;60.40;94483.09;828308;71;30735;-76
2021/09/05 00:31:19;;;;;;;10.15;9.15;;;;;;;16.88;61.22;94498.84;833918;71;32716;-79
2021/09/05 00:46:24;;;;;;;10.15;9.15;;;;;;;16.75;61.02;94496.68;833933;71;31388;-76
2021/09/05 01:01:20;;;;;;;10.90;9.38;;;;;;;16.61;61.25;94514.18;828428;71;29744;-77
2021/09/05 01:16:26;;;;;;;10.32;9.25;;;;;;;16.48;61.67;94517.86;828509;71;30329;-77
2021/09/05 01:31:28;;;;;;;10.68;9.43;;;;;;;16.33;62.19;94520.00;835007;71;32693;-76
2021/09/05 01:46:20;;;;;;;10.75;9.55;;;;;;;16.26;62.39;94521.61;827315;71;33267;-77
2021/09/05 02:01:32;;;;;;;9.85;8.85;;;;;;;16.17;62.78;94524.31;827420;71;32754;-79
2021/09/05 02:16:45;;;;;;;10.70;9.60;;;;;;;15.98;63.31;94534.80;827450;71;32693;-78
2021/09/05 02:31:27;;;;;;;10.03;9.00;;;;;;;15.84;63.74;94532.93;828374;71;32774;-77
2021/09/05 02:46:18;;;;;;;11.35;10.13;;;;;;;15.76;63.84;94540.36;828247;71;29688;-78
2021/09/05 03:16:08;;;;;;;10.13;8.93;;;;;;;15.51;64.90;94541.45;833848;71;30530;-78
2021/09/05 03:31:15;;;;;;;9.78;8.80;;;;;;;15.42;64.99;94556.02;827409;71;32701;-76
2021/09/05 03:46:15;;;;;;;10.55;9.55;;;;;;;15.35;65.17;94561.03;827303;71;32714;-78
2021/09/05 04:01:08;;;;;;;10.90;9.40;;;;;;;15.32;65.37;94578.06;833973;71;30297;-78
2021/09/05 04:16:14;;;;;;;10.45;9.50;;;;;;;15.43;65.55;94576.64;827632;71;32702;-76
2021/09/05 04:31:14;;;;;;;9.90;8.90;;;;;;;16.38;64.18;94597.14;827497;71;33175;-77
2021/09/05 04:46:08;;;;;;;11.05;9.95;;;;;;;17.77;60.13;94588.52;828289;71;30305;-76
2021/09/05 05:01:19;;;;;;;10.03;9.13;;;;;;;19.65;61.43;94590.05;828851;71;32694;-77
2021/09/05 05:16:09;;;;;;;10.40;9.40;;;;;;;21.71;53.30;94600.13;829926;71;30325;-78
2021/09/05 05:31:08;;;;;;;11.25;10.15;;;;;;;21.32;49.81;94602.09;828451;71;30202;-79
2021/09/05 05:46:12;;;;;;;11.20;10.15;;;;;;;22.15;49.58;94620.30;835391;71;32026;-77
2021/09/05 06:01:08;;;;;;;11.33;9.90;;;;;;;22.95;47.30;94615.73;835507;71;29711;-79
2021/09/05 06:16:28;;;;;;;8.10;7.40;;;;;;;22.27;48.83;94625.48;834315;71;30738;-80
2021/09/05 06:31:10;;;;;;;8.93;8.13;;;;;;;23.29;48.43;94633.15;830163;71;29701;-79
2021/09/05 06:46:28;;;;;;;8.80;8.00;;;;;;;23.49;47.71;94642.37;821029;70;32683;-77
2021/09/05 07:01:27;;;;;;;9.63;8.80;;;;;;;23.89;46.12;94656.97;827617;71;33239;-77
2021/09/05 07:16:18;;;;;;;9.40;8.60;;;;;;;23.66;46.14;94667.80;828291;71;29704;-77
2021/09/05 07:31:16;;;;;;;9.70;8.80;;;;;;;23.12;47.17;94682.69;828618;71;30250;-74
2021/09/05 07:46:20;;;;;;;9.70;8.90;;;;;;;22.70;47.54;94684.95;833839;71;32724;-75
2021/09/05 08:01:12;;;;;;;9.93;9.00;;;;;;;22.48;47.63;94689.20;834140;71;29675;-74
2021/09/05 08:16:08;;;;;;;9.37;8.57;;;;;;;23.12;46.76;94688.04;821670;71;28846;-79
2021/09/05 08:31:21;;;;;;;9.20;8.27;;;;;;;23.19;47.05;94696.17;822839;71;29309;-79
2021/09/05 08:46:25;;;;;;;8.07;7.37;;;;;;;24.14;45.63;94672.69;814802;71;31756;-79
2021/09/05 09:16:13;;;;;;;7.70;7.10;;;;;;;26.06;39.69;94664.49;828374;71;29223;-76
2021/09/05 09:31:18;;;;;;;7.00;6.30;;;;;;;25.89;36.24;94659.23;829207;71;29280;-75
2021/09/05 09:46:26;;;;;;;7.53;6.93;;;;;;;25.09;36.70;94645.36;828225;71;28652;-77
2021/09/05 10:01:29;;;;;;;6.80;6.10;;;;;;;24.72;37.94;94619.48;833693;71;31770;-76
2021/09/05 10:16:24;;;;;;;8.57;7.60;;;;;;;25.61;36.25;94638.45;828073;71;31571;-80
2021/09/05 10:31:31;;;;;;;7.93;7.10;;;;;;;25.33;34.86;94645.30;828215;71;29330;-78
2021/09/05 10:46:22;;;;;;;7.30;6.70;;;;;;;24.81;35.79;94629.88;828162;71;31559;-76
2021/09/05 11:01:15;;;;;;;7.87;7.13;;;;;;;25.41;35.62;94630.73;831560;71;28725;-76
2021/09/05 11:16:18;;;;;;;7.67;6.87;;;;;;;25.17;34.63;94629.47;827747;71;31744;-77
2021/09/05 11:31:23;;;;;;;7.43;6.83;;;;;;;25.46;35.51;94625.55;828209;71;29295;-78
2021/09/05 11:46:31;;;;;;;7.73;6.40;;;;;;;24.94;34.83;94624.36;833977;71;32661;-78
2021/09/05 12:01:24;;;;;;;6.13;5.53;;;;;;;24.47;35.98;94631.36;829237;71;32744;-77
2021/09/05 12:16:40;;;;;;;6.53;5.93;;;;;;;24.89;35.88;94626.84;827481;71;33149;-78
2021/09/05 12:31:20;;;;;;;6.50;6.00;;;;;;;24.91;36.02;94630.50;827485;71;32631;-77
2021/09/05 12:46:12;;;;;;;6.03;5.53;;;;;;;24.96;34.44;94624.78;834241;71;30177;-77
2021/09/05 13:01:10;;;;;;;6.40;5.90;;;;;;;25.59;33.88;94611.97;828338;71;30302;-77
2021/09/05 13:16:23;;;;;;;6.00;5.57;;;;;;;25.07;34.76;94619.45;828557;71;29735;-75
2021/09/05 13:31:21;;;;;;;7.43;6.73;;;;;;;24.82;34.77;94616.08;828751;71;29686;-77
2021/09/05 13:46:17;;;;;;;6.00;5.50;;;;;;;24.59;35.28;94643.16;829754;71;29764;-76
2021/09/05 14:01:26;;;;;;;5.43;5.03;;;;;;;24.34;38.18;94624.95;834315;71;33135;-76
2021/09/05 14:16:19;;;;;;;6.10;5.53;;;;;;;23.76;36.49;94630.95;827721;71;33131;-78
2021/09/05 14:31:40;;;;;;;6.60;6.00;;;;;;;23.44;37.59;94617.23;828437;71;30365;-76
2021/09/05 15:16:16;;;;;;;6.87;6.27;;;;;;;22.64;40.47;94622.77;827563;71;33216;-76
2021/09/05 15:31:31;;;;;;;7.00;6.40;;;;;;;22.30;42.23;94621.31;829742;71;30296;-78
2021/09/05 16:01:30;;;;;;;14.05;10.85;;;;;;;22.32;43.83;94626.53;828665;71;30361;-79
2021/09/05 16:16:29;;;;;;;9.05;8.20;;;;;;;22.18;42.84;94646.30;819208;71;29884;-77
2021/09/05 16:31:22;;;;;;;8.35;7.65;;;;;;;22.08;44.43;94653.59;828143;71;30262;-76
2021/09/05 16:46:19;;;;;;;7.03;6.33;;;;;;;21.77;42.36;94660.14;793859;74;30435;-77
2021/09/05 16:47:23;;;;;;;7.58;6.97;;;;;;;21.71;43.24;94660.80;777079;76;26298;-79
2021/09/05 17:01:16;;;;;;;11.12;8.15;;;;;;;21.79;44.19;94678.49;828197;71;29654;-76
2021/09/05 17:16:30;;;;;;;8.25;7.62;;;;;;;21.76;43.18;94689.33;828269;71;30362;-77
2021/09/05 17:31:12;;;;;;;7.87;7.17;;;;;;;22.48;44.70;94711.94;828371;71;30277;-76
2021/09/05 17:46:20;;;;;;;7.72;6.95;;;;;;;22.34;44.51;94736.56;827478;71;32662;-76
2021/09/05 18:01:28;;;;;;;19.60;15.58;;;;;;;22.29;43.31;94754.23;827774;71;32785;-80
2021/09/05 18:16:20;;;;;;;7.85;7.05;;;;;;;21.18;44.47;94764.05;834555;71;29710;-79
2021/09/05 18:31:25;;;;;;;7.45;6.60;;;;;;;20.95;46.08;94779.37;827665;71;32716;-78
2021/09/05 18:46:15;;;;;;;7.90;7.20;;;;;;;22.02;45.92;94785.42;834117;71;29690;-77
2021/09/05 19:01:27;;;;;;;7.87;7.10;;;;;;;20.93;44.62;94790.19;834769;71;32713;-75
2021/09/05 19:16:12;;;;;;;8.70;7.80;;;;;;;20.77;45.84;94799.53;828345;71;30368;-77
2021/09/05 19:31:25;;;;;;;7.50;6.70;;;;;;;20.09;46.79;94794.56;828121;71;30807;-77
2021/09/05 19:46:28;;;;;;;7.75;7.12;;;;;;;19.35;48.93;94790.03;834021;71;33261;-75
2021/09/05 20:01:20;;;;;;;9.38;8.43;;;;;;;18.89;50.94;94799.49;828930;71;29714;-76
2021/09/05 20:02:24;;;;;;;9.28;8.35;;;;;;;18.83;51.06;94794.73;809496;73;26323;-77
2021/09/05 20:16:23;;;;;;;8.68;7.87;;;;;;;18.76;51.77;94792.61;823961;71;32758;-76
2021/09/05 20:31:37;;;;;;;11.33;8.25;;;;;;;18.60;53.19;94799.12;828059;71;32704;-78
2021/09/05 20:46:19;;;;;;;10.15;8.25;;;;;;;18.24;54.66;94801.16;827541;71;31720;-77
2021/09/05 21:16:15;;;;;;;7.87;7.08;;;;;;;17.99;55.12;94823.11;827307;71;32811;-78
2021/09/05 21:31:08;;;;;;;9.15;7.70;;;;;;;17.57;57.00;94840.34;828275;71;28671;-76
2021/09/05 21:46:15;;;;;;;8.40;6.75;;;;;;;17.27;57.91;94842.81;827268;71;31682;-77
2021/09/05 22:01:28;;;;;;;8.95;8.05;;;;;;;17.21;58.62;94841.69;835754;71;31783;-78
2021/09/05 22:16:15;;;;;;;7.75;7.05;;;;;;;16.98;59.04;94848.34;827207;71;31867;-77
2021/09/05 22:31:08;;;;;;;7.90;7.20;;;;;;;16.71;59.80;94852.95;828226;71;28632;-77
2021/09/05 22:46:08;;;;;;;7.65;6.95;;;;;;;16.50;59.78;94856.05;829670;71;28749;-78
2021/09/05 23:01:22;;;;;;;7.90;7.20;;;;;;;16.74;57.79;94870.85;827471;71;32281;-79
2021/09/05 23:16:16;;;;;;;7.55;6.53;;;;;;;16.95;56.61;94862.22;827500;71;31726;-78
2021/09/05 23:31:30;;;;;;;8.88;7.28;;;;;;;17.04;56.40;94860.88;833918;71;31852;-77
2021/09/05 23:46:27;;;;;;;8.65;7.35;;;;;;;16.84;57.18;94869.77;827626;71;31781;-77
